sensor_id;sensor_type;location;lat;lon;timestamp;pressure;altitude;pressure_sealevel;temperature;humidity
45731;BME280;31440;48.584;13.460;2023-01-26T00:02:06;97266.50;;;-0.93;100.00
45731;BME280;31440;48.584;13.460;2023-01-26T00:05:11;97269.75;;;-1.05;100.00
45731;BME280;31440;48.584;13.460;2023-01-26T00:08:15;97268.03;;;-1.05;100.00
45731;BME280;31440;48.584;13.460;2023-01-26T00:11:22;97270.97;;;-0.77;100.00
45731;BME280;31440;48.584;13.460;2023-01-26T00:14:27;97256.53;;;-0.75;100.00
45731;BME280;31440;48.584;13.460;2023-01-26T00:17:52;97258.47;;;-0.53;100.00
45731;BME280;31440;48.584;13.460;2023-01-26T00:20:58;97251.59;;;-0.60;100.00
45731;BME280;31440;48.584;13.460;2023-01-26T00:24:02;97247.63;;;-0.32;100.00
45731;BME280;31440;48.584;13.460;2023-01-26T00:30:15;97244.94;;;-0.46;100.00
45731;BME280;31440;48.584;13.460;2023-01-26T00:33:19;97238.69;;;-0.69;100.00
45731;BME280;31440;48.584;13.460;2023-01-26T00:36:24;97241.88;;;-0.87;100.00
45731;BME280;31440;48.584;13.460;2023-01-26T00:39:28;97241.97;;;-0.81;100.00
45731;BME280;31440;48.584;13.460;2023-01-26T00:42:33;97239.91;;;-0.37;100.00
45731;BME280;31440;48.584;13.460;2023-01-26T00:45:38;97231.16;;;-0.60;100.00
45731;BME280;31440;48.584;13.460;2023-01-26T00:48:43;97236.09;;;-0.74;100.00
45731;BME280;31440;48.584;13.460;2023-01-26T00:51:48;97226.03;;;-0.60;100.00
45731;BME280;31440;48.584;13.460;2023-01-26T00:54:52;97224.84;;;-0.88;100.00
45731;BME280;31440;48.584;13.460;2023-01-26T00:57:58;97235.72;;;-1.04;100.00
45731;BME280;31440;48.584;13.460;2023-01-26T01:01:02;97217.97;;;-0.95;100.00
45731;BME280;31440;48.584;13.460;2023-01-26T01:07:13;97233.31;;;-0.95;100.00
45731;BME280;31440;48.584;13.460;2023-01-26T01:10:18;97233.13;;;-1.07;100.00
45731;BME280;31440;48.584;13.460;2023-01-26T01:13:22;97228.59;;;-1.29;100.00
45731;BME280;31440;48.584;13.460;2023-01-26T01:16:27;97232.91;;;-1.24;100.00
45731;BME280;31440;48.584;13.460;2023-01-26T01:19:33;97228.75;;;-1.17;100.00
45731;BME280;31440;48.584;13.460;2023-01-26T01:22:38;97229.53;;;-1.23;100.00
45731;BME280;31440;48.584;13.460;2023-01-26T01:25:42;97225.88;;;-0.74;100.00
45731;BME280;31440;48.584;13.460;2023-01-26T01:28:47;97224.94;;;-0.82;100.00
45731;BME280;31440;48.584;13.460;2023-01-26T01:31:52;97231.88;;;-0.70;100.00
45731;BME280;31440;48.584;13.460;2023-01-26T01:34:56;97234.66;;;-0.49;100.00
45731;BME280;31440;48.584;13.460;2023-01-26T01:38:01;97229.47;;;-0.59;100.00
45731;BME280;31440;48.584;13.460;2023-01-26T01:41:06;97221.34;;;-0.98;100.00
45731;BME280;31440;48.584;13.460;2023-01-26T01:44:22;97216.59;;;-1.35;100.00
45731;BME280;31440;48.584;13.460;2023-01-26T01:47:27;97217.03;;;-1.02;100.00
45731;BME280;31440;48.584;13.460;2023-01-26T01:53:40;97196.81;;;-0.85;100.00
45731;BME280;31440;48.584;13.460;2023-01-26T01:56:50;97209.66;;;-0.79;100.00
45731;BME280;31440;48.584;13.460;2023-01-26T02:00:05;97210.94;;;-0.37;100.00
45731;BME280;31440;48.584;13.460;2023-01-26T02:03:17;97211.63;;;-0.53;100.00
45731;BME280;31440;48.584;13.460;2023-01-26T02:06:46;97203.75;;;-0.76;100.00
45731;BME280;31440;48.584;13.460;2023-01-26T02:09:52;97201.22;;;-0.72;100.00
45731;BME280;31440;48.584;13.460;2023-01-26T02:13:17;97202.38;;;-0.42;100.00
45731;BME280;31440;48.584;13.460;2023-01-26T02:16:23;97192.75;;;-0.68;100.00
45731;BME280;31440;48.584;13.460;2023-01-26T02:20:07;97196.19;;;-0.66;100.00
45731;BME280;31440;48.584;13.460;2023-01-26T02:23:28;97201.19;;;-0.76;100.00
45731;BME280;31440;48.584;13.460;2023-01-26T02:26:36;97194.50;;;-0.64;100.00
45731;BME280;31440;48.584;13.460;2023-01-26T02:29:40;97186.78;;;-0.68;100.00
45731;BME280;31440;48.584;13.460;2023-01-26T02:32:46;97183.25;;;-0.81;100.00
45731;BME280;31440;48.584;13.460;2023-01-26T02:35:51;97182.47;;;-0.75;100.00
45731;BME280;31440;48.584;13.460;2023-01-26T02:42:30;97172.06;;;-0.90;100.00
45731;BME280;31440;48.584;13.460;2023-01-26T02:45:47;97172.25;;;-0.75;100.00
45731;BME280;31440;48.584;13.460;2023-01-26T02:48:52;97162.88;;;-0.73;100.00
45731;BME280;31440;48.584;13.460;2023-01-26T02:52:29;97159.19;;;-1.03;100.00
45731;BME280;31440;48.584;13.460;2023-01-26T02:55:39;97159.97;;;-1.07;100.00
45731;BME280;31440;48.584;13.460;2023-01-26T02:58:45;97155.03;;;-0.91;100.00
45731;BME280;31440;48.584;13.460;2023-01-26T03:01:50;97151.31;;;-1.19;100.00
45731;BME280;31440;48.584;13.460;2023-01-26T03:04:56;97145.78;;;-0.83;100.00
45731;BME280;31440;48.584;13.460;2023-01-26T03:08:01;97121.63;;;-1.14;100.00
45731;BME280;31440;48.584;13.460;2023-01-26T03:11:12;97149.59;;;-1.22;100.00
45731;BME280;31440;48.584;13.460;2023-01-26T03:14:17;97144.41;;;-1.26;100.00
45731;BME280;31440;48.584;13.460;2023-01-26T03:17:22;97145.06;;;-1.43;100.00
45731;BME280;31440;48.584;13.460;2023-01-26T03:20:26;97152.97;;;-1.23;100.00
45731;BME280;31440;48.584;13.460;2023-01-26T03:23:50;97142.25;;;-0.96;100.00
45731;BME280;31440;48.584;13.460;2023-01-26T03:27:13;97138.91;;;-0.87;100.00
45731;BME280;31440;48.584;13.460;2023-01-26T03:30:32;97130.41;;;-0.86;100.00
45731;BME280;31440;48.584;13.460;2023-01-26T03:33:37;97132.22;;;-0.79;100.00
45731;BME280;31440;48.584;13.460;2023-01-26T03:36:42;97138.06;;;-0.88;100.00
45731;BME280;31440;48.584;13.460;2023-01-26T03:43:16;97136.78;;;-1.25;100.00
45731;BME280;31440;48.584;13.460;2023-01-26T03:46:40;97135.59;;;-1.53;100.00
45731;BME280;31440;48.584;13.460;2023-01-26T03:50:04;97148.94;;;-1.06;100.00
45731;BME280;31440;48.584;13.460;2023-01-26T03:53:28;97144.75;;;-1.01;100.00
45731;BME280;31440;48.584;13.460;2023-01-26T03:56:51;97138.59;;;-1.18;100.00
45731;BME280;31440;48.584;13.460;2023-01-26T03:59:56;97135.38;;;-1.00;100.00
45731;BME280;31440;48.584;13.460;2023-01-26T04:03:03;97134.50;;;-1.02;100.00
45731;BME280;31440;48.584;13.460;2023-01-26T04:06:27;97128.34;;;-1.21;100.00
45731;BME280;31440;48.584;13.460;2023-01-26T04:09:50;97134.19;;;-1.31;100.00
45731;BME280;31440;48.584;13.460;2023-01-26T04:12:55;97126.06;;;-0.97;100.00
45731;BME280;31440;48.584;13.460;2023-01-26T04:16:24;97121.69;;;-1.07;100.00
45731;BME280;31440;48.584;13.460;2023-01-26T04:19:47;97120.94;;;-1.00;100.00
45731;BME280;31440;48.584;13.460;2023-01-26T04:23:18;97108.34;;;-0.81;100.00
45731;BME280;31440;48.584;13.460;2023-01-26T04:26:30;97103.97;;;-0.91;100.00
45731;BME280;31440;48.584;13.460;2023-01-26T04:29:39;97104.84;;;-0.94;100.00
45731;BME280;31440;48.584;13.460;2023-01-26T04:32:45;97114.06;;;-1.04;100.00
45731;BME280;31440;48.584;13.460;2023-01-26T04:35:50;97118.16;;;-1.18;100.00
45731;BME280;31440;48.584;13.460;2023-01-26T04:38:58;97077.59;;;-0.95;100.00
45731;BME280;31440;48.584;13.460;2023-01-26T04:42:03;97102.47;;;-0.76;100.00
45731;BME280;31440;48.584;13.460;2023-01-26T04:45:09;97103.22;;;-0.84;100.00
45731;BME280;31440;48.584;13.460;2023-01-26T04:48:15;97100.69;;;-0.81;100.00
45731;BME280;31440;48.584;13.460;2023-01-26T04:51:20;97097.50;;;-0.56;100.00
45731;BME280;31440;48.584;13.460;2023-01-26T04:54:26;97097.56;;;-0.50;100.00
45731;BME280;31440;48.584;13.460;2023-01-26T04:57:31;97094.81;;;-0.76;100.00
45731;BME280;31440;48.584;13.460;2023-01-26T05:00:37;97088.06;;;-0.65;100.00
45731;BME280;31440;48.584;13.460;2023-01-26T05:03:42;97088.81;;;-0.78;100.00
45731;BME280;31440;48.584;13.460;2023-01-26T05:06:48;97086.22;;;-0.82;100.00
45731;BME280;31440;48.584;13.460;2023-01-26T05:09:53;97084.47;;;-0.85;100.00
45731;BME280;31440;48.584;13.460;2023-01-26T05:13:10;97078.78;;;-0.58;100.00
45731;BME280;31440;48.584;13.460;2023-01-26T05:16:33;97075.94;;;-0.87;100.00
45731;BME280;31440;48.584;13.460;2023-01-26T05:19:42;97085.44;;;-0.72;100.00
45731;BME280;31440;48.584;13.460;2023-01-26T05:23:05;97083.16;;;-0.42;100.00
45731;BME280;31440;48.584;13.460;2023-01-26T05:26:36;97075.41;;;-0.52;100.00
45731;BME280;31440;48.584;13.460;2023-01-26T05:29:44;97076.75;;;-0.91;100.00
45731;BME280;31440;48.584;13.460;2023-01-26T05:32:49;97085.84;;;-1.19;100.00
45731;BME280;31440;48.584;13.460;2023-01-26T05:35:53;97083.53;;;-0.96;100.00
45731;BME280;31440;48.584;13.460;2023-01-26T05:38:58;97079.63;;;-0.54;100.00
45731;BME280;31440;48.584;13.460;2023-01-26T05:42:04;97081.25;;;-0.66;100.00
45731;BME280;31440;48.584;13.460;2023-01-26T05:45:36;97095.38;;;-1.01;100.00
45731;BME280;31440;48.584;13.460;2023-01-26T05:48:41;97096.81;;;-1.24;100.00
45731;BME280;31440;48.584;13.460;2023-01-26T05:54:51;97090.47;;;-0.83;100.00
45731;BME280;31440;48.584;13.460;2023-01-26T05:57:56;97088.63;;;-0.98;100.00
45731;BME280;31440;48.584;13.460;2023-01-26T06:01:05;97095.47;;;-0.92;100.00
45731;BME280;31440;48.584;13.460;2023-01-26T06:04:19;97101.56;;;-0.81;100.00
45731;BME280;31440;48.584;13.460;2023-01-26T06:07:33;97098.84;;;-0.98;100.00
45731;BME280;31440;48.584;13.460;2023-01-26T06:10:51;97104.75;;;-1.00;100.00
45731;BME280;31440;48.584;13.460;2023-01-26T06:14:15;97095.47;;;-0.92;100.00
45731;BME280;31440;48.584;13.460;2023-01-26T06:17:20;97095.50;;;-0.87;100.00
45731;BME280;31440;48.584;13.460;2023-01-26T06:23:36;97099.56;;;-1.08;100.00
45731;BME280;31440;48.584;13.460;2023-01-26T06:26:41;97095.06;;;-1.32;100.00
45731;BME280;31440;48.584;13.460;2023-01-26T06:29:47;97091.13;;;-1.02;100.00
45731;BME280;31440;48.584;13.460;2023-01-26T06:32:55;97077.50;;;-1.03;100.00
45731;BME280;31440;48.584;13.460;2023-01-26T06:36:05;97089.53;;;-0.91;100.00
45731;BME280;31440;48.584;13.460;2023-01-26T06:39:10;97090.97;;;-1.17;100.00
45731;BME280;31440;48.584;13.460;2023-01-26T06:42:16;97092.53;;;-1.27;100.00
45731;BME280;31440;48.584;13.460;2023-01-26T06:45:20;97092.09;;;-0.89;100.00
45731;BME280;31440;48.584;13.460;2023-01-26T06:48:28;97085.31;;;-0.87;100.00
45731;BME280;31440;48.584;13.460;2023-01-26T06:52:39;97084.63;;;-0.70;100.00
45731;BME280;31440;48.584;13.460;2023-01-26T06:55:35;97081.28;;;-0.64;100.00
45731;BME280;31440;48.584;13.460;2023-01-26T06:59:04;97080.56;;;-0.46;100.00
45731;BME280;31440;48.584;13.460;2023-01-26T07:02:32;97075.38;;;-0.57;100.00
45731;BME280;31440;48.584;13.460;2023-01-26T07:05:36;97081.97;;;-0.80;100.00
45731;BME280;31440;48.584;13.460;2023-01-26T07:08:41;97083.66;;;-0.84;100.00
45731;BME280;31440;48.584;13.460;2023-01-26T07:11:45;97077.94;;;-0.58;100.00
45731;BME280;31440;48.584;13.460;2023-01-26T07:14:50;97081.19;;;-0.76;100.00
45731;BME280;31440;48.584;13.460;2023-01-26T07:17:56;97082.25;;;-0.48;100.00
45731;BME280;31440;48.584;13.460;2023-01-26T07:21:02;97075.22;;;-0.75;100.00
45731;BME280;31440;48.584;13.460;2023-01-26T07:24:08;97079.63;;;-0.54;100.00
45731;BME280;31440;48.584;13.460;2023-01-26T07:27:13;97084.66;;;-0.65;100.00
45731;BME280;31440;48.584;13.460;2023-01-26T07:30:17;97080.28;;;-0.80;100.00
45731;BME280;31440;48.584;13.460;2023-01-26T07:33:22;97080.59;;;-0.45;100.00
45731;BME280;31440;48.584;13.460;2023-01-26T07:36:26;97075.28;;;-0.66;100.00
45731;BME280;31440;48.584;13.460;2023-01-26T07:42:37;97081.28;;;-0.63;100.00
45731;BME280;31440;48.584;13.460;2023-01-26T07:45:55;97069.38;;;-0.62;100.00
45731;BME280;31440;48.584;13.460;2023-01-26T07:48:59;97077.94;;;-0.57;100.00
45731;BME280;31440;48.584;13.460;2023-01-26T07:55:12;97073.50;;;-0.73;100.00
45731;BME280;31440;48.584;13.460;2023-01-26T07:58:17;97068.28;;;-0.88;100.00
45731;BME280;31440;48.584;13.460;2023-01-26T08:01:22;97084.47;;;-0.86;100.00
45731;BME280;31440;48.584;13.460;2023-01-26T08:04:26;97076.00;;;-0.81;100.00
45731;BME280;31440;48.584;13.460;2023-01-26T08:07:33;97049.72;;;-0.71;100.00
45731;BME280;31440;48.584;13.460;2023-01-26T08:10:37;97075.22;;;-0.72;100.00
45731;BME280;31440;48.584;13.460;2023-01-26T08:13:42;97073.63;;;-0.64;100.00
45731;BME280;31440;48.584;13.460;2023-01-26T08:16:46;97071.09;;;-0.59;100.00
45731;BME280;31440;48.584;13.460;2023-01-26T08:19:51;97070.31;;;-0.49;100.00
45731;BME280;31440;48.584;13.460;2023-01-26T08:22:56;97068.59;;;-0.50;100.00
45731;BME280;31440;48.584;13.460;2023-01-26T08:29:09;97076.31;;;-0.47;100.00
45731;BME280;31440;48.584;13.460;2023-01-26T08:32:14;97072.06;;;-0.44;100.00
45731;BME280;31440;48.584;13.460;2023-01-26T08:35:18;97072.78;;;-0.62;100.00
45731;BME280;31440;48.584;13.460;2023-01-26T08:41:28;97071.16;;;-0.50;100.00
45731;BME280;31440;48.584;13.460;2023-01-26T08:44:33;97066.94;;;-0.47;100.00
45731;BME280;31440;48.584;13.460;2023-01-26T08:47:38;97064.25;;;-0.65;100.00
45731;BME280;31440;48.584;13.460;2023-01-26T08:50:42;97050.13;;;-0.13;100.00
45731;BME280;31440;48.584;13.460;2023-01-26T08:53:47;97047.47;;;-0.30;100.00
45731;BME280;31440;48.584;13.460;2023-01-26T08:56:52;97044.84;;;-0.43;100.00
45731;BME280;31440;48.584;13.460;2023-01-26T09:00:01;96981.69;;;-0.63;100.00
45731;BME280;31440;48.584;13.460;2023-01-26T09:03:07;97043.91;;;-0.50;100.00
45731;BME280;31440;48.584;13.460;2023-01-26T09:06:12;97038.00;;;-0.46;100.00
45731;BME280;31440;48.584;13.460;2023-01-26T09:09:17;97041.09;;;-0.85;100.00
45731;BME280;31440;48.584;13.460;2023-01-26T09:12:22;97045.50;;;-0.66;100.00
45731;BME280;31440;48.584;13.460;2023-01-26T09:15:27;97037.19;;;-0.39;100.00
45731;BME280;31440;48.584;13.460;2023-01-26T09:18:32;97039.91;;;-0.16;100.00
45731;BME280;31440;48.584;13.460;2023-01-26T09:21:37;97032.94;;;-0.35;100.00
45731;BME280;31440;48.584;13.460;2023-01-26T09:24:42;97050.13;;;-0.13;100.00
45731;BME280;31440;48.584;13.460;2023-01-26T09:27:46;97046.75;;;-0.12;100.00
45731;BME280;31440;48.584;13.460;2023-01-26T09:30:51;97051.81;;;-0.18;100.00
45731;BME280;31440;48.584;13.460;2023-01-26T09:33:56;97050.09;;;-0.19;100.00
45731;BME280;31440;48.584;13.460;2023-01-26T09:37:01;97015.84;;;-0.47;100.00
45731;BME280;31440;48.584;13.460;2023-01-26T09:40:15;97050.75;;;-0.47;100.00
45731;BME280;31440;48.584;13.460;2023-01-26T09:43:46;97051.75;;;-0.27;100.00
45731;BME280;31440;48.584;13.460;2023-01-26T09:47:09;97046.66;;;-0.26;100.00
45731;BME280;31440;48.584;13.460;2023-01-26T09:50:20;97036.56;;;-0.07;100.00
45731;BME280;31440;48.584;13.460;2023-01-26T09:53:52;97046.59;;;-0.35;100.00
45731;BME280;31440;48.584;13.460;2023-01-26T09:57:00;97029.59;;;-0.31;100.00
45731;BME280;31440;48.584;13.460;2023-01-26T10:06:30;97042.41;;;-0.27;100.00
45731;BME280;31440;48.584;13.460;2023-01-26T10:09:45;97041.56;;;-0.22;100.00
45731;BME280;31440;48.584;13.460;2023-01-26T10:12:51;97037.59;;;-0.91;100.00
45731;BME280;31440;48.584;13.460;2023-01-26T10:16:00;97040.47;;;-0.55;100.00
45731;BME280;31440;48.584;13.460;2023-01-26T10:22:21;97032.91;;;-0.44;100.00
45731;BME280;31440;48.584;13.460;2023-01-26T10:25:40;97029.59;;;-0.28;100.00
45731;BME280;31440;48.584;13.460;2023-01-26T10:28:47;97025.13;;;-0.55;100.00
45731;BME280;31440;48.584;13.460;2023-01-26T10:31:52;97023.59;;;-0.33;100.00
45731;BME280;31440;48.584;13.460;2023-01-26T10:34:58;97028.41;;;-0.71;100.00
45731;BME280;31440;48.584;13.460;2023-01-26T10:42:01;97004.59;;;-0.72;100.00
45731;BME280;31440;48.584;13.460;2023-01-26T10:45:30;97018.47;;;-0.41;100.00
45731;BME280;31440;48.584;13.460;2023-01-26T10:48:35;97014.13;;;-0.49;100.00
45731;BME280;31440;48.584;13.460;2023-01-26T10:51:43;97012.44;;;-0.46;100.00
45731;BME280;31440;48.584;13.460;2023-01-26T10:55:08;97013.94;;;-0.75;100.00
45731;BME280;31440;48.584;13.460;2023-01-26T10:58:51;97014.09;;;-0.57;100.00
45731;BME280;31440;48.584;13.460;2023-01-26T11:02:16;97005.50;;;-0.64;100.00
45731;BME280;31440;48.584;13.460;2023-01-26T11:05:24;96999.56;;;-0.64;100.00
45731;BME280;31440;48.584;13.460;2023-01-26T11:08:35;96998.69;;;-0.65;100.00
45731;BME280;31440;48.584;13.460;2023-01-26T11:11:40;96992.81;;;-0.53;100.00
45731;BME280;31440;48.584;13.460;2023-01-26T11:22:08;96998.00;;;-0.38;100.00
45731;BME280;31440;48.584;13.460;2023-01-26T11:25:24;96983.59;;;-0.31;100.00
45731;BME280;31440;48.584;13.460;2023-01-26T11:35:21;96994.41;;;-0.67;100.00
45731;BME280;31440;48.584;13.460;2023-01-26T11:38:48;96994.13;;;-1.02;100.00
45731;BME280;31440;48.584;13.460;2023-01-26T11:42:14;96989.09;;;-0.91;100.00
45731;BME280;31440;48.584;13.460;2023-01-26T11:45:27;96976.63;;;-0.55;100.00
45731;BME280;31440;48.584;13.460;2023-01-26T11:48:49;96979.06;;;-0.70;100.00
45731;BME280;31440;48.584;13.460;2023-01-26T11:52:06;96974.72;;;-0.82;100.00
45731;BME280;31440;48.584;13.460;2023-01-26T11:56:06;96975.72;;;-0.63;100.00
45731;BME280;31440;48.584;13.460;2023-01-26T11:59:33;96970.00;;;-0.27;100.00
45731;BME280;31440;48.584;13.460;2023-01-26T12:02:50;96952.81;;;-0.51;100.00
45731;BME280;31440;48.584;13.460;2023-01-26T12:06:00;96961.38;;;-0.44;100.00
45731;BME280;31440;48.584;13.460;2023-01-26T12:09:25;96964.53;;;-0.80;100.00
45731;BME280;31440;48.584;13.460;2023-01-26T12:12:41;96966.88;;;-1.05;100.00
45731;BME280;31440;48.584;13.460;2023-01-26T12:15:51;96970.16;;;-1.21;100.00
45731;BME280;31440;48.584;13.460;2023-01-26T12:19:27;96957.44;;;-1.15;100.00
45731;BME280;31440;48.584;13.460;2023-01-26T12:22:37;96945.81;;;-0.81;100.00
45731;BME280;31440;48.584;13.460;2023-01-26T12:25:52;96946.56;;;-0.96;100.00
45731;BME280;31440;48.584;13.460;2023-01-26T12:35:35;96944.91;;;-0.87;100.00
45731;BME280;31440;48.584;13.460;2023-01-26T12:45:45;96937.91;;;-1.10;100.00
45731;BME280;31440;48.584;13.460;2023-01-26T12:48:57;96936.59;;;-0.54;100.00
45731;BME280;31440;48.584;13.460;2023-01-26T12:52:12;96936.34;;;-0.97;100.00
45731;BME280;31440;48.584;13.460;2023-01-26T12:55:38;96934.69;;;-0.87;100.00
45731;BME280;31440;48.584;13.460;2023-01-26T12:58:44;96930.22;;;-1.16;100.00
45731;BME280;31440;48.584;13.460;2023-01-26T13:01:51;96932.94;;;-0.94;100.00
45731;BME280;31440;48.584;13.460;2023-01-26T13:04:57;96933.59;;;-1.20;100.00
45731;BME280;31440;48.584;13.460;2023-01-26T13:14:58;96911.44;;;-1.22;100.00
45731;BME280;31440;48.584;13.460;2023-01-26T13:18:03;96931.25;;;-0.92;100.00
45731;BME280;31440;48.584;13.460;2023-01-26T13:21:08;96929.34;;;-1.18;100.00
45731;BME280;31440;48.584;13.460;2023-01-26T13:30:44;96932.00;;;-1.04;100.00
45731;BME280;31440;48.584;13.460;2023-01-26T13:33:49;96925.41;;;-0.73;100.00
45731;BME280;31440;48.584;13.460;2023-01-26T13:37:05;96920.41;;;-0.56;100.00
45731;BME280;31440;48.584;13.460;2023-01-26T13:40:33;96921.63;;;0.22;100.00
45731;BME280;31440;48.584;13.460;2023-01-26T13:43:48;96901.50;;;-0.87;100.00
45731;BME280;31440;48.584;13.460;2023-01-26T13:46:59;96907.31;;;-1.11;100.00
45731;BME280;31440;48.584;13.460;2023-01-26T13:53:40;96920.31;;;-0.76;100.00
45731;BME280;31440;48.584;13.460;2023-01-26T13:57:00;96922.00;;;-0.78;100.00
45731;BME280;31440;48.584;13.460;2023-01-26T14:00:10;96926.16;;;-0.89;100.00
45731;BME280;31440;48.584;13.460;2023-01-26T14:03:21;96924.25;;;-1.18;100.00
45731;BME280;31440;48.584;13.460;2023-01-26T14:06:27;96918.63;;;-0.70;100.00
45731;BME280;31440;48.584;13.460;2023-01-26T14:09:48;96928.19;;;-0.37;100.00
45731;BME280;31440;48.584;13.460;2023-01-26T14:12:54;96922.84;;;-0.78;100.00
45731;BME280;31440;48.584;13.460;2023-01-26T14:16:04;96927.09;;;-0.78;100.00
45731;BME280;31440;48.584;13.460;2023-01-26T14:19:14;96924.56;;;-0.78;100.00
45731;BME280;31440;48.584;13.460;2023-01-26T14:22:19;96937.34;;;-0.75;100.00
45731;BME280;31440;48.584;13.460;2023-01-26T14:25:25;96939.16;;;-0.61;100.00
45731;BME280;31440;48.584;13.460;2023-01-26T14:28:33;96938.06;;;-0.93;100.00
45731;BME280;31440;48.584;13.460;2023-01-26T14:31:39;96933.69;;;-1.08;100.00
45731;BME280;31440;48.584;13.460;2023-01-26T14:34:55;96941.47;;;-0.94;100.00
45731;BME280;31440;48.584;13.460;2023-01-26T14:41:26;96944.84;;;-0.97;100.00
45731;BME280;31440;48.584;13.460;2023-01-26T14:44:32;96936.25;;;-1.05;100.00
45731;BME280;31440;48.584;13.460;2023-01-26T14:47:36;96931.25;;;-0.89;100.00
45731;BME280;31440;48.584;13.460;2023-01-26T14:50:43;96939.69;;;-1.01;100.00
45731;BME280;31440;48.584;13.460;2023-01-26T14:54:26;96934.47;;;-1.16;100.00
45731;BME280;31440;48.584;13.460;2023-01-26T14:57:32;96938.63;;;-1.24;100.00
45731;BME280;31440;48.584;13.460;2023-01-26T15:00:37;96942.94;;;-1.19;100.00
45731;BME280;31440;48.584;13.460;2023-01-26T15:03:42;96938.75;;;-1.09;100.00
45731;BME280;31440;48.584;13.460;2023-01-26T15:06:47;96942.22;;;-1.04;100.00
45731;BME280;31440;48.584;13.460;2023-01-26T15:09:52;96939.78;;;-0.89;100.00
45731;BME280;31440;48.584;13.460;2023-01-26T15:16:21;96944.75;;;-1.07;100.00
45731;BME280;31440;48.584;13.460;2023-01-26T15:19:31;96940.31;;;-1.29;100.00
45731;BME280;31440;48.584;13.460;2023-01-26T15:22:36;96940.53;;;-1.04;100.00
45731;BME280;31440;48.584;13.460;2023-01-26T15:25:40;96944.56;;;-1.30;100.00
45731;BME280;31440;48.584;13.460;2023-01-26T15:31:53;96942.16;;;-1.13;100.00
45731;BME280;31440;48.584;13.460;2023-01-26T15:38:20;96947.13;;;-1.28;100.00
45731;BME280;31440;48.584;13.460;2023-01-26T15:41:25;96928.22;;;-1.50;100.00
45731;BME280;31440;48.584;13.460;2023-01-26T15:44:30;96945.22;;;-1.46;100.00
45731;BME280;31440;48.584;13.460;2023-01-26T15:47:35;96957.94;;;-1.52;100.00
45731;BME280;31440;48.584;13.460;2023-01-26T15:50:39;96958.03;;;-1.42;100.00
45731;BME280;31440;48.584;13.460;2023-01-26T15:53:44;96953.75;;;-1.49;100.00
45731;BME280;31440;48.584;13.460;2023-01-26T15:56:48;96949.97;;;-1.84;100.00
45731;BME280;31440;48.584;13.460;2023-01-26T15:59:53;96963.09;;;-1.46;100.00
45731;BME280;31440;48.584;13.460;2023-01-26T16:02:59;96961.22;;;-1.66;100.00
45731;BME280;31440;48.584;13.460;2023-01-26T16:06:15;96956.97;;;-1.65;100.00
45731;BME280;31440;48.584;13.460;2023-01-26T16:09:22;96956.16;;;-1.59;100.00
45731;BME280;31440;48.584;13.460;2023-01-26T16:12:26;96964.56;;;-1.70;100.00
45731;BME280;31440;48.584;13.460;2023-01-26T16:18:40;96968.72;;;-1.76;100.00
45731;BME280;31440;48.584;13.460;2023-01-26T16:21:45;96966.81;;;-1.95;100.00
45731;BME280;31440;48.584;13.460;2023-01-26T16:24:50;96968.25;;;-2.16;100.00
45731;BME280;31440;48.584;13.460;2023-01-26T16:27:55;96967.38;;;-2.18;100.00
45731;BME280;31440;48.584;13.460;2023-01-26T16:31:00;96955.16;;;-2.43;100.00
45731;BME280;31440;48.584;13.460;2023-01-26T16:34:07;96969.56;;;-2.45;100.00
45731;BME280;31440;48.584;13.460;2023-01-26T16:37:12;96979.66;;;-2.51;100.00
45731;BME280;31440;48.584;13.460;2023-01-26T16:40:17;96977.22;;;-2.45;100.00
45731;BME280;31440;48.584;13.460;2023-01-26T16:43:24;96961.44;;;-2.20;100.00
45731;BME280;31440;48.584;13.460;2023-01-26T16:46:30;96975.72;;;-2.29;100.00
45731;BME280;31440;48.584;13.460;2023-01-26T16:49:35;96974.22;;;-2.14;100.00
45731;BME280;31440;48.584;13.460;2023-01-26T16:52:43;96930.47;;;-2.49;100.00
45731;BME280;31440;48.584;13.460;2023-01-26T16:55:47;96977.25;;;-2.42;100.00
45731;BME280;31440;48.584;13.460;2023-01-26T16:58:52;96970.53;;;-2.37;100.00
45731;BME280;31440;48.584;13.460;2023-01-26T17:01:56;96974.56;;;-1.88;100.00
45731;BME280;31440;48.584;13.460;2023-01-26T17:05:01;96977.13;;;-1.86;100.00
45731;BME280;31440;48.584;13.460;2023-01-26T17:08:06;96952.31;;;-2.01;100.00
45731;BME280;31440;48.584;13.460;2023-01-26T17:11:19;96963.34;;;-2.02;100.00
45731;BME280;31440;48.584;13.460;2023-01-26T17:14:24;96980.38;;;-1.98;100.00
45731;BME280;31440;48.584;13.460;2023-01-26T17:17:28;96974.63;;;-1.83;100.00
45731;BME280;31440;48.584;13.460;2023-01-26T17:20:33;96977.03;;;-1.94;100.00
45731;BME280;31440;48.584;13.460;2023-01-26T17:23:39;96960.59;;;-2.19;100.00
45731;BME280;31440;48.584;13.460;2023-01-26T17:26:47;96976.16;;;-1.94;100.00
45731;BME280;31440;48.584;13.460;2023-01-26T17:29:52;96967.13;;;-1.70;100.00
45731;BME280;31440;48.584;13.460;2023-01-26T17:32:57;96973.44;;;-2.10;100.00
45731;BME280;31440;48.584;13.460;2023-01-26T17:36:02;96966.03;;;-1.90;100.00
45731;BME280;31440;48.584;13.460;2023-01-26T17:39:08;96962.47;;;-2.04;100.00
45731;BME280;31440;48.584;13.460;2023-01-26T17:42:14;96966.28;;;-1.67;100.00
45731;BME280;31440;48.584;13.460;2023-01-26T17:45:18;96968.03;;;-1.61;100.00
45731;BME280;31440;48.584;13.460;2023-01-26T17:48:26;96954.75;;;-2.09;100.00
45731;BME280;31440;48.584;13.460;2023-01-26T17:51:30;96962.91;;;-2.34;100.00
45731;BME280;31440;48.584;13.460;2023-01-26T17:54:35;96970.44;;;-2.45;100.00
45731;BME280;31440;48.584;13.460;2023-01-26T17:57:40;96975.72;;;-2.29;100.00
45731;BME280;31440;48.584;13.460;2023-01-26T18:00:44;96974.72;;;-2.42;100.00
45731;BME280;31440;48.584;13.460;2023-01-26T18:03:49;96975.00;;;-2.18;100.00
45731;BME280;31440;48.584;13.460;2023-01-26T18:06:54;96982.91;;;-1.98;100.00
45731;BME280;31440;48.584;13.460;2023-01-26T18:13:04;96983.72;;;-2.64;100.00